createdAt,value
2023-05-19T00:02:20.896Z,56.98
2023-05-19T00:04:55.862Z,54.80
2023-05-19T00:07:31.418Z,56.29
2023-05-19T00:10:05.125Z,55.48
2023-05-19T00:12:39.735Z,57.43
2023-05-19T00:15:14.229Z,54.48
2023-05-19T00:17:47.583Z,57.35
2023-05-19T00:20:22.122Z,55.60
2023-05-19T00:22:55.007Z,55.55
2023-05-19T00:25:28.085Z,53.94
2023-05-19T00:28:02.337Z,55.39
2023-05-19T00:30:35.270Z,52.56
2023-05-19T00:33:08.208Z,52.66
2023-05-19T00:35:42.515Z,54.65
2023-05-19T00:38:15.531Z,56.93
2023-05-19T00:40:48.387Z,58.51
2023-05-19T00:43:21.254Z,58.34
2023-05-19T00:45:54.337Z,58.08
2023-05-19T00:48:27.968Z,59.69
2023-05-19T00:51:04.738Z,58.94
2023-05-19T00:53:37.748Z,58.86
2023-05-19T00:56:10.823Z,54.42
2023-05-19T00:58:43.681Z,54.85
2023-05-19T01:01:17.211Z,61.12
2023-05-19T01:03:51.919Z,62.12
2023-05-19T01:06:27.703Z,62.83
2023-05-19T01:09:00.608Z,60.75
2023-05-19T01:11:34.011Z,57.88
2023-05-19T01:14:06.955Z,56.78
2023-05-19T01:16:44.221Z,62.54
2023-05-19T01:22:54.874Z,61.88
2023-05-19T01:25:51.883Z,58.62
2023-05-19T01:28:42.637Z,60.33
2023-05-19T01:31:18.347Z,63.52
2023-05-19T01:33:54.128Z,63.17
2023-05-19T01:36:28.304Z,60.69
2023-05-19T01:39:04.633Z,57.16
2023-05-19T01:41:39.144Z,59.48
2023-05-19T01:44:15.941Z,62.65
2023-05-19T01:46:52.328Z,60.98
2023-05-19T01:49:25.412Z,59.07
2023-05-19T01:51:58.289Z,56.96
2023-05-19T01:54:31.087Z,64.33
2023-05-19T01:57:14.089Z,63.14
2023-05-19T01:59:53.389Z,62.50
2023-05-19T02:02:40.085Z,56.83
2023-05-19T02:05:28.719Z,57.65
2023-05-19T02:08:08.394Z,58.35
2023-05-19T02:10:48.444Z,60.92
2023-05-19T02:13:24.115Z,61.56
2023-05-19T02:16:04.476Z,60.33
2023-05-19T02:18:39.039Z,58.21
2023-05-19T02:21:13.456Z,61.16
2023-05-19T02:23:46.704Z,62.62
2023-05-19T02:26:20.147Z,64.88
2023-05-19T02:28:53.026Z,64.42
2023-05-19T02:31:26.325Z,60.58
2023-05-19T02:34:00.607Z,64.64
2023-05-19T02:36:35.303Z,59.88
2023-05-19T02:39:08.723Z,63.38
2023-05-19T02:41:41.585Z,65.92
2023-05-19T02:44:14.571Z,65.48
2023-05-19T02:46:47.428Z,65.68
2023-05-19T02:49:21.832Z,65.27
2023-05-19T02:51:54.737Z,60.49
2023-05-19T02:54:27.771Z,63.97
2023-05-19T02:57:01.089Z,63.97
2023-05-19T02:59:34.490Z,60.24
2023-05-19T03:02:07.827Z,63.42
2023-05-19T03:04:42.974Z,65.34
2023-05-19T03:07:16.331Z,66.58
2023-05-19T03:09:49.260Z,66.03
2023-05-19T03:12:22.087Z,65.63
2023-05-19T03:14:55.048Z,70.01
2023-05-19T03:17:33.583Z,60.98
2023-05-19T03:20:10.780Z,62.96
2023-05-19T03:22:43.734Z,67.25
2023-05-19T03:25:17.023Z,66.84
2023-05-19T03:27:50.065Z,70.10
2023-05-19T03:30:23.154Z,70.38
2023-05-19T03:33:09.900Z,65.76
2023-05-19T03:35:44.680Z,70.58
2023-05-19T03:38:18.247Z,70.20
2023-05-19T03:41:02.625Z,69.83
2023-05-19T03:43:35.549Z,66.76
2023-05-19T03:46:10.956Z,66.15
2023-05-19T03:48:46.888Z,68.47
2023-05-19T03:51:30.833Z,72.48
2023-05-19T03:54:11.975Z,69.58
2023-05-19T03:56:45.924Z,68.22
2023-05-19T03:59:18.872Z,69.64
2023-05-19T04:01:52.659Z,69.65
2023-05-19T04:04:26.709Z,68.66
2023-05-19T04:07:01.473Z,69.25
2023-05-19T04:09:35.328Z,66.40
2023-05-19T04:12:09.209Z,69.79
2023-05-19T04:14:42.398Z,65.84
2023-05-19T04:17:16.413Z,71.43
2023-05-19T04:19:49.280Z,70.79
2023-05-19T04:22:23.506Z,71.22
2023-05-19T04:24:56.462Z,68.21
2023-05-19T04:27:31.893Z,67.20
2023-05-19T04:30:05.468Z,68.05
2023-05-19T04:32:39.594Z,64.60
2023-05-19T04:35:13.623Z,70.29
2023-05-19T04:37:48.423Z,67.60
2023-05-19T04:40:24.646Z,70.22
2023-05-19T04:43:01.932Z,69.67
2023-05-19T04:45:37.529Z,69.85
2023-05-19T04:48:12.177Z,68.60
2023-05-19T04:50:45.048Z,70.32
2023-05-19T04:53:19.229Z,68.64
2023-05-19T04:55:52.209Z,70.93
2023-05-19T04:58:25.940Z,69.86
2023-05-19T05:00:59.398Z,71.92
2023-05-19T05:03:34.409Z,70.32
2023-05-19T05:06:07.755Z,71.00
2023-05-19T05:08:42.586Z,69.45
2023-05-19T05:11:16.025Z,69.98
2023-05-19T05:13:49.813Z,70.44
2023-05-19T05:16:23.217Z,71.04
2023-05-19T05:18:57.461Z,70.14
2023-05-19T05:21:31.746Z,70.00
2023-05-19T05:24:07.642Z,69.90
2023-05-19T05:26:42.812Z,70.31
2023-05-19T05:29:15.919Z,70.41
2023-05-19T05:31:48.835Z,69.74
2023-05-19T05:34:22.443Z,70.87
2023-05-19T05:36:56.182Z,70.46
2023-05-19T05:39:31.760Z,66.74
2023-05-19T05:42:05.014Z,69.27
2023-05-19T05:44:37.859Z,69.77
2023-05-19T05:47:12.879Z,69.03
2023-05-19T05:49:48.123Z,68.15
2023-05-19T05:52:23.444Z,67.98
2023-05-19T05:55:00.095Z,68.51
2023-05-19T05:57:35.194Z,67.12
2023-05-19T06:00:15.462Z,67.06
2023-05-19T06:02:51.454Z,65.93
2023-05-19T06:05:25.842Z,66.55
2023-05-19T06:08:00.220Z,66.49
2023-05-19T06:10:36.779Z,65.60
2023-05-19T06:13:12.827Z,65.79
2023-05-19T06:15:47.686Z,66.64
2023-05-19T06:18:29.220Z,65.99
2023-05-19T06:21:03.224Z,65.29
2023-05-19T06:23:36.399Z,64.21
2023-05-19T06:26:12.706Z,64.08
2023-05-19T06:28:45.600Z,63.42
2023-05-19T06:31:18.564Z,64.33
2023-05-19T06:34:00.590Z,62.38
2023-05-19T06:36:35.133Z,63.21
2023-05-19T06:39:08.471Z,60.35
2023-05-19T06:41:43.585Z,62.02
2023-05-19T06:44:17.116Z,61.47
2023-05-19T06:46:53.292Z,61.47
2023-05-19T06:49:29.277Z,61.58
2023-05-19T06:52:02.196Z,59.39
2023-05-19T06:54:35.402Z,59.33
2023-05-19T06:57:09.975Z,58.21
2023-05-19T06:59:43.480Z,58.91
2023-05-19T07:02:16.473Z,56.64
2023-05-19T07:04:51.299Z,54.88
2023-05-19T07:07:24.237Z,56.57
2023-05-19T07:09:57.833Z,55.49
2023-05-19T07:12:33.239Z,56.09
2023-05-19T07:15:07.162Z,54.52
2023-05-19T07:17:41.265Z,53.45
2023-05-19T07:20:14.920Z,55.33
2023-05-19T07:22:47.781Z,52.85
2023-05-19T07:25:21.664Z,52.69
2023-05-19T07:27:56.371Z,52.51
2023-05-19T07:30:30.855Z,51.63
2023-05-19T07:33:03.969Z,52.52
2023-05-19T07:35:37.403Z,50.90
2023-05-19T07:38:10.291Z,50.92
2023-05-19T07:40:43.161Z,50.23
2023-05-19T07:43:17.418Z,49.89
2023-05-19T07:45:50.330Z,49.80
2023-05-19T07:48:24.562Z,48.87
2023-05-19T07:50:57.430Z,50.56
2023-05-19T07:53:30.567Z,47.68
2023-05-19T07:56:03.671Z,47.97
2023-05-19T07:58:37.867Z,46.73
2023-05-19T08:01:10.797Z,45.88
2023-05-19T08:03:43.811Z,46.26
2023-05-19T08:06:16.779Z,46.88
2023-05-19T08:08:49.620Z,46.50
2023-05-19T08:11:22.914Z,45.71
2023-05-19T08:13:57.434Z,46.31
2023-05-19T08:16:30.515Z,45.92
2023-05-19T08:19:05.401Z,44.32
2023-05-19T08:21:38.448Z,44.13
2023-05-19T08:24:11.362Z,44.45
2023-05-19T08:26:45.122Z,46.13
2023-05-19T08:29:19.339Z,43.88
2023-05-19T08:31:53.110Z,44.49
2023-05-19T08:34:26.287Z,41.81
2023-05-19T08:36:59.719Z,42.03
2023-05-19T08:39:34.142Z,43.49
2023-05-19T08:42:10.107Z,42.13
2023-05-19T08:44:44.510Z,41.79
2023-05-19T08:47:18.922Z,41.76
2023-05-19T08:49:54.339Z,41.77
2023-05-19T08:52:35.645Z,41.29
2023-05-19T08:55:13.784Z,40.49
2023-05-19T08:57:46.758Z,40.78
2023-05-19T09:00:22.702Z,41.21
2023-05-19T09:03:00.455Z,40.02
2023-05-19T09:05:40.109Z,40.18
2023-05-19T09:08:13.428Z,39.84
2023-05-19T09:10:46.780Z,37.86
2023-05-19T09:13:19.707Z,37.54
2023-05-19T09:15:54.638Z,37.61
2023-05-19T09:18:28.045Z,36.51
2023-05-19T09:21:02.656Z,35.34
2023-05-19T09:23:35.997Z,34.87
2023-05-19T09:26:08.904Z,33.28
2023-05-19T09:28:42.386Z,34.02
2023-05-19T09:31:17.113Z,37.39
2023-05-19T09:33:54.146Z,35.02
2023-05-19T09:36:27.432Z,35.98
2023-05-19T09:39:00.271Z,34.36
2023-05-19T09:41:34.436Z,34.98
2023-05-19T09:44:07.863Z,35.24
2023-05-19T09:46:50.482Z,32.89
2023-05-19T09:49:24.468Z,31.70
2023-05-19T09:51:57.689Z,32.96
2023-05-19T09:54:32.256Z,32.58
2023-05-19T09:57:08.542Z,33.01
2023-05-19T09:59:42.956Z,32.38
2023-05-19T10:02:21.530Z,33.76
2023-05-19T10:04:56.102Z,31.58
2023-05-19T10:07:29.978Z,32.38
2023-05-19T10:10:03.878Z,32.58
2023-05-19T10:12:38.433Z,30.91
2023-05-19T10:15:12.623Z,32.17
2023-05-19T10:17:47.661Z,32.12
2023-05-19T10:20:20.570Z,32.51
2023-05-19T10:22:53.526Z,31.33
2023-05-19T10:25:26.498Z,32.01
2023-05-19T10:28:04.796Z,30.46
2023-05-19T10:30:42.042Z,30.29
2023-05-19T10:33:19.578Z,31.66
2023-05-19T10:36:11.434Z,29.20
2023-05-19T10:38:52.099Z,30.80
2023-05-19T10:41:29.772Z,31.71
2023-05-19T10:44:13.556Z,30.60
2023-05-19T10:46:46.793Z,30.77
2023-05-19T10:49:24.448Z,30.44
2023-05-19T10:51:57.794Z,29.85
2023-05-19T10:54:40.983Z,28.63
2023-05-19T10:57:16.487Z,28.93
2023-05-19T10:59:51.135Z,28.02
2023-05-19T11:02:44.359Z,27.24
2023-05-19T11:05:19.474Z,27.17
2023-05-19T11:08:02.354Z,28.93
2023-05-19T11:10:35.768Z,27.96
2023-05-19T11:13:08.707Z,28.59
2023-05-19T11:15:43.955Z,28.42
2023-05-19T11:18:17.167Z,29.68
2023-05-19T11:21:02.273Z,29.03
2023-05-19T11:23:39.904Z,29.23
2023-05-19T11:26:13.881Z,29.48
2023-05-19T11:28:48.742Z,29.01
2023-05-19T11:31:22.928Z,26.60
2023-05-19T11:33:55.961Z,26.11
2023-05-19T11:36:31.194Z,27.70
2023-05-19T11:39:09.307Z,26.94
2023-05-19T11:41:42.218Z,25.00
2023-05-19T11:44:16.111Z,25.90
2023-05-19T11:46:49.883Z,25.88
2023-05-19T11:49:22.930Z,26.99
2023-05-19T11:51:57.640Z,23.89
2023-05-19T11:54:32.503Z,26.93
2023-05-19T11:57:06.358Z,24.66
2023-05-19T11:59:43.695Z,25.70
2023-05-19T12:02:21.093Z,25.42
2023-05-19T12:04:54.619Z,25.11
2023-05-19T12:07:29.794Z,27.18
2023-05-19T12:10:02.697Z,24.41
2023-05-19T12:12:35.932Z,25.45
2023-05-19T12:15:10.307Z,25.46
2023-05-19T12:17:43.319Z,23.78
2023-05-19T12:20:16.259Z,22.60
2023-05-19T12:22:51.813Z,24.70
2023-05-19T12:25:25.310Z,25.89
2023-05-19T12:28:03.331Z,27.13
2023-05-19T12:30:36.935Z,24.32
2023-05-19T12:33:10.116Z,23.95
2023-05-19T12:35:43.507Z,24.57
2023-05-19T12:38:18.115Z,22.74
2023-05-19T12:40:51.302Z,23.44
2023-05-19T12:43:24.477Z,24.74
2023-05-19T12:45:57.428Z,24.92
2023-05-19T12:48:31.450Z,22.57
2023-05-19T12:51:05.528Z,24.80
2023-05-19T12:53:39.724Z,21.91
2023-05-19T12:56:13.888Z,22.27
2023-05-19T12:58:54.496Z,22.54
2023-05-19T13:01:27.777Z,24.71
2023-05-19T13:04:01.704Z,22.14
2023-05-19T13:06:36.300Z,22.19
2023-05-19T13:09:11.418Z,23.28
2023-05-19T13:11:44.462Z,23.04
2023-05-19T13:14:18.545Z,22.86
2023-05-19T13:16:51.424Z,24.40
2023-05-19T13:19:25.819Z,24.94
2023-05-19T13:21:59.307Z,24.79
2023-05-19T13:24:33.826Z,25.90
2023-05-19T13:27:06.953Z,23.74
2023-05-19T13:29:39.828Z,23.60
2023-05-19T13:32:12.680Z,23.39
2023-05-19T13:34:45.578Z,23.97
2023-05-19T13:37:18.603Z,23.03
2023-05-19T13:39:52.900Z,21.85
2023-05-19T13:42:26.153Z,23.28
2023-05-19T13:44:58.965Z,23.28
2023-05-19T13:47:32.360Z,25.26
2023-05-19T13:50:07.068Z,23.59
2023-05-19T13:52:39.964Z,24.59
2023-05-19T13:55:14.258Z,25.26
2023-05-19T13:57:47.163Z,25.28
2023-05-19T14:00:21.285Z,24.34
2023-05-19T14:02:54.263Z,25.26
2023-05-19T14:05:28.741Z,25.00
2023-05-19T14:08:03.649Z,23.45
2023-05-19T14:10:37.975Z,24.11
2023-05-19T14:13:31.530Z,23.71
2023-05-19T14:16:05.748Z,23.36
2023-05-19T14:18:39.101Z,22.75
2023-05-19T14:21:12.084Z,24.79
2023-05-19T14:23:45.174Z,25.89
2023-05-19T14:26:19.626Z,25.88
2023-05-19T14:28:52.638Z,25.29
2023-05-19T14:31:28.383Z,23.61
2023-05-19T14:34:01.230Z,23.13
2023-05-19T14:36:35.073Z,22.92
2023-05-19T14:39:08.257Z,22.40
2023-05-19T14:41:42.860Z,21.97
2023-05-19T14:44:15.779Z,20.97
2023-05-19T14:46:49.043Z,20.58
2023-05-19T14:49:21.974Z,21.70
2023-05-19T14:51:54.810Z,20.21
2023-05-19T14:54:28.091Z,18.56
2023-05-19T14:57:02.977Z,20.15
2023-05-19T14:59:38.273Z,22.42
2023-05-19T15:02:11.878Z,23.94
2023-05-19T15:04:44.695Z,23.00
2023-05-19T15:07:17.692Z,21.34
2023-05-19T15:09:50.495Z,19.65
2023-05-19T15:12:25.061Z,18.80
2023-05-19T15:14:57.973Z,22.84
2023-05-19T15:17:31.018Z,23.82
2023-05-19T15:20:03.954Z,22.35
2023-05-19T15:22:40.218Z,24.91
2023-05-19T15:25:13.241Z,24.87
2023-05-19T15:27:47.933Z,22.82
2023-05-19T15:30:21.031Z,22.62
2023-05-19T15:32:56.540Z,20.91
2023-05-19T15:35:29.645Z,21.08
2023-05-19T15:38:06.101Z,23.79
2023-05-19T15:40:39.277Z,23.08
2023-05-19T15:43:14.589Z,25.40
2023-05-19T15:45:47.924Z,24.94
2023-05-19T15:48:20.846Z,24.12
2023-05-19T15:50:53.787Z,21.11
2023-05-19T15:53:26.801Z,19.36
2023-05-19T15:55:59.705Z,19.09
2023-05-19T15:58:33.946Z,17.61
2023-05-19T16:01:07.616Z,18.61
2023-05-19T16:03:40.638Z,16.88
2023-05-19T16:06:13.679Z,17.60
2023-05-19T16:08:46.528Z,20.39
2023-05-19T16:11:20.614Z,19.15
2023-05-19T16:13:55.455Z,21.67
2023-05-19T16:16:29.027Z,21.21
2023-05-19T16:19:07.458Z,23.41
2023-05-19T16:21:40.426Z,25.60
2023-05-19T16:24:13.637Z,19.92
2023-05-19T16:26:48.504Z,17.17
2023-05-19T16:29:22.720Z,16.45
2023-05-19T16:31:55.654Z,14.19
2023-05-19T16:34:30.612Z,14.09
2023-05-19T16:37:04.010Z,14.79
2023-05-19T16:39:37.749Z,13.28
2023-05-19T16:42:10.738Z,13.48
2023-05-19T16:44:45.195Z,14.45
2023-05-19T16:47:18.131Z,14.50
2023-05-19T16:49:51.295Z,17.79
2023-05-19T16:52:24.277Z,15.42
2023-05-19T16:54:57.169Z,13.23
2023-05-19T16:57:30.483Z,14.48
2023-05-19T17:00:05.404Z,12.54
2023-05-19T17:02:38.424Z,12.90
2023-05-19T17:05:11.451Z,10.53
2023-05-19T17:07:44.485Z,12.89
2023-05-19T17:10:17.523Z,11.72
2023-05-19T17:12:50.435Z,8.94
2023-05-19T17:15:24.709Z,13.41
2023-05-19T17:17:57.602Z,13.93
2023-05-19T17:20:31.202Z,10.29
2023-05-19T17:23:04.108Z,9.66
2023-05-19T17:25:37.207Z,9.35
2023-05-19T17:28:10.295Z,11.74
2023-05-19T17:30:44.669Z,11.39
2023-05-19T17:33:17.817Z,11.59
2023-05-19T17:35:50.806Z,11.70
2023-05-19T17:38:23.617Z,10.08
2023-05-19T17:40:59.358Z,13.09
2023-05-19T17:43:32.353Z,13.29
2023-05-19T17:46:09.192Z,18.30
2023-05-19T17:48:42.082Z,16.07
2023-05-19T17:51:15.143Z,18.10
2023-05-19T17:53:48.641Z,20.23
2023-05-19T17:56:23.033Z,21.80
2023-05-19T17:58:56.936Z,21.95
2023-05-19T18:01:32.223Z,22.66
2023-05-19T18:04:06.032Z,24.04
2023-05-19T18:06:41.581Z,23.05
2023-05-19T18:09:14.995Z,24.73
2023-05-19T18:11:47.916Z,24.76
2023-05-19T18:14:21.253Z,25.10
2023-05-19T18:16:55.890Z,28.47
2023-05-19T18:19:29.780Z,28.48
2023-05-19T18:22:02.981Z,26.69
2023-05-19T18:24:35.831Z,29.11
2023-05-19T18:27:09.229Z,28.00
2023-05-19T18:29:43.353Z,29.31
2023-05-19T18:32:17.896Z,29.90
2023-05-19T18:34:50.877Z,27.72
2023-05-19T18:37:23.709Z,29.75
2023-05-19T18:39:56.671Z,27.37
2023-05-19T18:42:29.783Z,30.07
2023-05-19T18:45:02.716Z,30.10
2023-05-19T18:47:38.033Z,29.21
2023-05-19T18:50:11.457Z,29.49
2023-05-19T18:52:44.385Z,29.93
2023-05-19T18:55:17.443Z,29.64
2023-05-19T18:57:51.336Z,29.36
2023-05-19T19:00:25.921Z,29.34
2023-05-19T19:03:00.207Z,30.73
2023-05-19T19:05:32.934Z,32.92
2023-05-19T19:08:06.543Z,31.37
2023-05-19T19:10:40.658Z,32.56
2023-05-19T19:13:13.775Z,32.21
2023-05-19T19:15:46.686Z,31.87
2023-05-19T19:18:20.890Z,33.36
2023-05-19T19:20:54.800Z,32.88
2023-05-19T19:23:27.819Z,32.58
2023-05-19T19:26:00.821Z,34.19
2023-05-19T19:28:33.674Z,34.28
2023-05-19T19:31:06.552Z,34.33
2023-05-19T19:33:43.273Z,33.97
2023-05-19T19:36:16.136Z,34.59
2023-05-19T19:38:49.404Z,34.37
2023-05-19T19:41:22.357Z,35.31
2023-05-19T19:43:55.363Z,35.78
2023-05-19T19:46:28.292Z,35.53
2023-05-19T19:49:02.818Z,35.78
2023-05-19T19:51:35.681Z,36.45
2023-05-19T19:54:08.569Z,36.07
2023-05-19T19:56:41.412Z,36.50
2023-05-19T19:59:14.287Z,36.57
2023-05-19T20:01:47.314Z,36.32
2023-05-19T20:04:21.768Z,36.45
2023-05-19T20:06:54.638Z,36.93
2023-05-19T20:09:27.586Z,36.96
2023-05-19T20:12:00.498Z,37.05
2023-05-19T20:14:33.408Z,37.13
2023-05-19T20:17:06.347Z,37.19
2023-05-19T20:19:40.661Z,37.65
2023-05-19T20:22:13.786Z,37.47
2023-05-19T20:24:47.050Z,38.11
2023-05-19T20:27:19.901Z,37.96
2023-05-19T20:29:52.901Z,38.26
2023-05-19T20:32:26.164Z,38.08
2023-05-19T20:35:00.785Z,38.30
2023-05-19T20:37:33.879Z,38.32
2023-05-19T20:40:08.037Z,39.17
2023-05-19T20:42:41.197Z,38.84
2023-05-19T20:45:14.153Z,39.37
2023-05-19T20:47:47.174Z,39.81
2023-05-19T20:50:21.640Z,40.11
2023-05-19T20:52:54.726Z,40.10
2023-05-19T20:55:27.906Z,40.10
2023-05-19T20:58:00.846Z,40.11
2023-05-19T21:00:34.052Z,40.70
2023-05-19T21:03:07.243Z,40.57
2023-05-19T21:05:41.483Z,41.06
2023-05-19T21:08:14.340Z,41.00
2023-05-19T21:10:47.447Z,40.60
2023-05-19T21:13:20.709Z,40.58
2023-05-19T21:15:53.618Z,40.66
2023-05-19T21:18:26.502Z,41.17
2023-05-19T21:21:04.356Z,41.82
2023-05-19T21:23:37.201Z,42.76
2023-05-19T21:26:10.656Z,42.62
2023-05-19T21:28:43.756Z,41.92
2023-05-19T21:31:16.743Z,43.63
2023-05-19T21:33:49.676Z,43.88
2023-05-19T21:36:24.064Z,42.34
2023-05-19T21:38:57.337Z,42.45
2023-05-19T21:41:31.032Z,43.93
2023-05-19T21:44:04.431Z,42.79
2023-05-19T21:46:37.388Z,43.32
2023-05-19T21:49:10.337Z,42.96
2023-05-19T21:51:44.539Z,42.93
2023-05-19T21:54:17.400Z,42.73
2023-05-19T21:56:59.123Z,42.79
2023-05-19T21:59:31.982Z,43.60
2023-05-19T22:02:05.441Z,43.28
2023-05-19T22:04:38.559Z,44.00
2023-05-19T22:07:13.091Z,44.35
2023-05-19T22:09:46.944Z,45.10
2023-05-19T22:12:21.615Z,43.82
2023-05-19T22:14:54.441Z,44.82
2023-05-19T22:17:27.462Z,44.38
2023-05-19T22:20:00.356Z,43.72
2023-05-19T22:22:35.073Z,44.38
2023-05-19T22:25:08.764Z,45.03
2023-05-19T22:27:41.738Z,43.13
2023-05-19T22:30:14.624Z,45.06
2023-05-19T22:32:47.493Z,45.74
2023-05-19T22:35:20.398Z,44.75
2023-05-19T22:37:54.877Z,45.62
2023-05-19T22:40:27.758Z,46.04
2023-05-19T22:43:00.617Z,44.86
2023-05-19T22:45:34.859Z,46.42
2023-05-19T22:48:08.162Z,45.17
2023-05-19T22:50:41.051Z,45.82
2023-05-19T22:53:15.439Z,45.90
2023-05-19T22:55:48.443Z,47.39
2023-05-19T22:58:21.267Z,45.99
2023-05-19T23:00:54.365Z,45.33
2023-05-19T23:03:27.340Z,47.17
2023-05-19T23:06:00.214Z,46.66
2023-05-19T23:08:34.398Z,45.63
2023-05-19T23:11:07.951Z,45.48
2023-05-19T23:13:41.147Z,47.22
2023-05-19T23:16:13.973Z,47.69
2023-05-19T23:18:46.849Z,47.56
2023-05-19T23:21:19.767Z,49.01
2023-05-19T23:23:54.044Z,48.48
2023-05-19T23:26:27.317Z,48.97
2023-05-19T23:29:00.565Z,48.42
2023-05-19T23:31:34.812Z,48.76
2023-05-19T23:34:08.223Z,47.87
2023-05-19T23:36:41.335Z,49.05
2023-05-19T23:39:15.482Z,49.80
2023-05-19T23:41:48.361Z,49.21
2023-05-19T23:44:21.269Z,49.82
2023-05-19T23:46:54.195Z,50.01
2023-05-19T23:49:27.111Z,49.70
2023-05-19T23:52:00.294Z,50.73
2023-05-19T23:54:34.609Z,50.66
2023-05-19T23:57:08.043Z,49.37
2023-05-19T23:59:41.361Z,51.19
